sensor_id;sensor_type;location;lat;lon;timestamp;pressure;altitude;pressure_sealevel;temperature;humidity
8286;BME280;4181;43.416;24.598;2023-04-01T00:00:24;99005.34;;;15.57;100.00
8286;BME280;4181;43.416;24.598;2023-04-01T00:02:49;99014.38;;;15.57;100.00
8286;BME280;4181;43.416;24.598;2023-04-01T00:05:15;99020.41;;;15.59;100.00
8286;BME280;4181;43.416;24.598;2023-04-01T00:07:42;99017.66;;;15.59;100.00
8286;BME280;4181;43.416;24.598;2023-04-01T00:10:10;99023.88;;;15.51;100.00
8286;BME280;4181;43.416;24.598;2023-04-01T00:12:37;99019.22;;;15.52;100.00
8286;BME280;4181;43.416;24.598;2023-04-01T00:15:05;99022.75;;;15.52;100.00
8286;BME280;4181;43.416;24.598;2023-04-01T00:17:31;99019.75;;;15.40;100.00
8286;BME280;4181;43.416;24.598;2023-04-01T00:19:57;99011.59;;;15.35;100.00
8286;BME280;4181;43.416;24.598;2023-04-01T00:22:24;99010.56;;;15.31;100.00
8286;BME280;4181;43.416;24.598;2023-04-01T00:24:50;99016.00;;;15.22;100.00
8286;BME280;4181;43.416;24.598;2023-04-01T00:27:16;99027.50;;;15.11;100.00
8286;BME280;4181;43.416;24.598;2023-04-01T00:29:45;99023.25;;;15.05;100.00
8286;BME280;4181;43.416;24.598;2023-04-01T00:32:12;99020.09;;;14.98;100.00
8286;BME280;4181;43.416;24.598;2023-04-01T00:34:37;99022.22;;;15.01;100.00
8286;BME280;4181;43.416;24.598;2023-04-01T00:37:05;99023.38;;;15.00;100.00
8286;BME280;4181;43.416;24.598;2023-04-01T00:39:31;99005.56;;;14.97;100.00
8286;BME280;4181;43.416;24.598;2023-04-01T00:41:58;99004.75;;;14.97;100.00
8286;BME280;4181;43.416;24.598;2023-04-01T00:44:26;99003.13;;;14.96;100.00
8286;BME280;4181;43.416;24.598;2023-04-01T00:46:52;99004.34;;;14.90;100.00
8286;BME280;4181;43.416;24.598;2023-04-01T00:49:19;99001.09;;;14.88;100.00
8286;BME280;4181;43.416;24.598;2023-04-01T00:51:47;98994.56;;;14.84;100.00
8286;BME280;4181;43.416;24.598;2023-04-01T00:54:16;99000.00;;;14.75;100.00
8286;BME280;4181;43.416;24.598;2023-04-01T00:56:46;98996.22;;;14.71;100.00
8286;BME280;4181;43.416;24.598;2023-04-01T00:59:19;98987.47;;;14.69;100.00
8286;BME280;4181;43.416;24.598;2023-04-01T01:01:46;98990.31;;;14.51;100.00
8286;BME280;4181;43.416;24.598;2023-04-01T01:04:31;98985.03;;;14.54;100.00
8286;BME280;4181;43.416;24.598;2023-04-01T01:12:14;98976.78;;;14.27;100.00
8286;BME280;4181;43.416;24.598;2023-04-01T01:14:56;98988.22;;;14.16;100.00
8286;BME280;4181;43.416;24.598;2023-04-01T01:20:30;98967.53;;;14.23;100.00
8286;BME280;4181;43.416;24.598;2023-04-01T01:28:48;98973.59;;;14.07;100.00
8286;BME280;4181;43.416;24.598;2023-04-01T01:34:40;98972.97;;;14.10;100.00
8286;BME280;4181;43.416;24.598;2023-04-01T01:37:13;98970.31;;;14.05;100.00
8286;BME280;4181;43.416;24.598;2023-04-01T01:39:41;98968.28;;;13.96;100.00
8286;BME280;4181;43.416;24.598;2023-04-01T01:42:11;98970.59;;;13.89;100.00
8286;BME280;4181;43.416;24.598;2023-04-01T01:44:40;98962.16;;;13.86;100.00
8286;BME280;4181;43.416;24.598;2023-04-01T01:47:07;98961.34;;;13.85;100.00
8286;BME280;4181;43.416;24.598;2023-04-01T01:49:35;98951.59;;;13.79;100.00
8286;BME280;4181;43.416;24.598;2023-04-01T01:52:01;98959.47;;;13.67;100.00
8286;BME280;4181;43.416;24.598;2023-04-01T01:54:27;98951.75;;;13.69;100.00
8286;BME280;4181;43.416;24.598;2023-04-01T01:57:06;98951.69;;;13.74;100.00
8286;BME280;4181;43.416;24.598;2023-04-01T01:59:34;98941.00;;;13.73;100.00
8286;BME280;4181;43.416;24.598;2023-04-01T02:02:02;98935.75;;;13.76;100.00
8286;BME280;4181;43.416;24.598;2023-04-01T02:04:34;98939.44;;;13.67;100.00
8286;BME280;4181;43.416;24.598;2023-04-01T02:07:05;98941.66;;;13.51;100.00
8286;BME280;4181;43.416;24.598;2023-04-01T02:09:33;98938.78;;;13.43;100.00
8286;BME280;4181;43.416;24.598;2023-04-01T02:12:03;98957.75;;;13.21;100.00
8286;BME280;4181;43.416;24.598;2023-04-01T02:14:47;98953.47;;;13.15;100.00
8286;BME280;4181;43.416;24.598;2023-04-01T02:17:21;98947.16;;;13.14;100.00
8286;BME280;4181;43.416;24.598;2023-04-01T02:19:53;98950.97;;;13.18;100.00
8286;BME280;4181;43.416;24.598;2023-04-01T02:22:27;98947.72;;;12.93;100.00
8286;BME280;4181;43.416;24.598;2023-04-01T02:24:55;98940.84;;;12.95;100.00
8286;BME280;4181;43.416;24.598;2023-04-01T02:27:23;98940.91;;;12.90;100.00
8286;BME280;4181;43.416;24.598;2023-04-01T02:29:50;98940.13;;;12.90;100.00
8286;BME280;4181;43.416;24.598;2023-04-01T02:32:16;98936.09;;;12.82;100.00
8286;BME280;4181;43.416;24.598;2023-04-01T02:34:43;98932.19;;;12.69;100.00
8286;BME280;4181;43.416;24.598;2023-04-01T02:37:08;98933.06;;;12.84;100.00
8286;BME280;4181;43.416;24.598;2023-04-01T02:39:34;98927.97;;;12.77;100.00
8286;BME280;4181;43.416;24.598;2023-04-01T02:41:59;98928.63;;;12.88;100.00
8286;BME280;4181;43.416;24.598;2023-04-01T02:44:25;98930.63;;;12.82;100.00
8286;BME280;4181;43.416;24.598;2023-04-01T02:46:51;98919.38;;;12.84;100.00
8286;BME280;4181;43.416;24.598;2023-04-01T02:49:17;98912.44;;;12.91;100.00
8286;BME280;4181;43.416;24.598;2023-04-01T02:51:43;98911.47;;;13.01;100.00
8286;BME280;4181;43.416;24.598;2023-04-01T02:54:08;98911.72;;;13.04;100.00
8286;BME280;4181;43.416;24.598;2023-04-01T02:56:34;98894.09;;;13.10;100.00
8286;BME280;4181;43.416;24.598;2023-04-01T02:58:59;98896.34;;;13.08;100.00
8286;BME280;4181;43.416;24.598;2023-04-01T03:01:25;98903.50;;;13.04;100.00
8286;BME280;4181;43.416;24.598;2023-04-01T03:03:50;98901.25;;;12.88;100.00
8286;BME280;4181;43.416;24.598;2023-04-01T03:06:16;98895.56;;;12.84;100.00
8286;BME280;4181;43.416;24.598;2023-04-01T03:08:42;98890.53;;;12.91;100.00
8286;BME280;4181;43.416;24.598;2023-04-01T03:11:09;98887.59;;;12.88;100.00
8286;BME280;4181;43.416;24.598;2023-04-01T03:13:35;98898.97;;;12.95;100.00
8286;BME280;4181;43.416;24.598;2023-04-01T03:16:01;98886.31;;;12.99;100.00
8286;BME280;4181;43.416;24.598;2023-04-01T03:18:26;98889.44;;;13.11;100.00
8286;BME280;4181;43.416;24.598;2023-04-01T03:20:52;98881.88;;;13.21;100.00
8286;BME280;4181;43.416;24.598;2023-04-01T03:23:17;98876.75;;;13.33;100.00
8286;BME280;4181;43.416;24.598;2023-04-01T03:25:45;98876.59;;;13.43;100.00
8286;BME280;4181;43.416;24.598;2023-04-01T03:28:10;98885.59;;;13.44;100.00
8286;BME280;4181;43.416;24.598;2023-04-01T03:30:36;98873.06;;;13.56;100.00
8286;BME280;4181;43.416;24.598;2023-04-01T03:33:01;98880.06;;;13.62;100.00
8286;BME280;4181;43.416;24.598;2023-04-01T03:35:27;98876.31;;;13.58;100.00
8286;BME280;4181;43.416;24.598;2023-04-01T03:37:53;98886.59;;;13.66;100.00
8286;BME280;4181;43.416;24.598;2023-04-01T03:40:20;98885.59;;;13.76;100.00
8286;BME280;4181;43.416;24.598;2023-04-01T03:42:46;98876.25;;;13.90;100.00
8286;BME280;4181;43.416;24.598;2023-04-01T03:45:11;98874.03;;;13.92;100.00
8286;BME280;4181;43.416;24.598;2023-04-01T03:47:38;98875.25;;;14.00;100.00
8286;BME280;4181;43.416;24.598;2023-04-01T03:50:05;98868.75;;;13.96;100.00
8286;BME280;4181;43.416;24.598;2023-04-01T03:52:31;98880.13;;;14.03;100.00
8286;BME280;4181;43.416;24.598;2023-04-01T03:54:56;98882.06;;;14.02;100.00
8286;BME280;4181;43.416;24.598;2023-04-01T03:57:22;98883.19;;;14.02;100.00
8286;BME280;4181;43.416;24.598;2023-04-01T03:59:47;98889.38;;;14.07;100.00
8286;BME280;4181;43.416;24.598;2023-04-01T04:02:12;98881.84;;;14.13;100.00
8286;BME280;4181;43.416;24.598;2023-04-01T04:04:38;98883.09;;;14.20;100.00
8286;BME280;4181;43.416;24.598;2023-04-01T04:07:03;98880.75;;;14.27;100.00
8286;BME280;4181;43.416;24.598;2023-04-01T04:09:30;98881.69;;;14.36;100.00
8286;BME280;4181;43.416;24.598;2023-04-01T04:11:56;98885.63;;;14.44;100.00
8286;BME280;4181;43.416;24.598;2023-04-01T04:14:23;98891.13;;;14.44;100.00
8286;BME280;4181;43.416;24.598;2023-04-01T04:16:48;98885.63;;;14.44;100.00
8286;BME280;4181;43.416;24.598;2023-04-01T04:19:14;98887.69;;;14.52;100.00
8286;BME280;4181;43.416;24.598;2023-04-01T04:21:41;98877.06;;;14.59;100.00
8286;BME280;4181;43.416;24.598;2023-04-01T04:24:07;98882.53;;;14.72;100.00
8286;BME280;4181;43.416;24.598;2023-04-01T04:26:33;98882.31;;;14.82;100.00
8286;BME280;4181;43.416;24.598;2023-04-01T04:28:59;98880.25;;;14.88;100.00
8286;BME280;4181;43.416;24.598;2023-04-01T04:31:25;98876.38;;;14.89;100.00
8286;BME280;4181;43.416;24.598;2023-04-01T04:33:51;98874.34;;;14.94;100.00
8286;BME280;4181;43.416;24.598;2023-04-01T04:36:17;98877.91;;;14.95;100.00
8286;BME280;4181;43.416;24.598;2023-04-01T04:38:43;98873.41;;;14.99;100.00
8286;BME280;4181;43.416;24.598;2023-04-01T04:41:10;98883.28;;;15.00;100.00
8286;BME280;4181;43.416;24.598;2023-04-01T04:43:40;98880.72;;;15.03;100.00
8286;BME280;4181;43.416;24.598;2023-04-01T04:46:09;98881.53;;;15.04;100.00
8286;BME280;4181;43.416;24.598;2023-04-01T04:48:35;98885.09;;;15.04;100.00
8286;BME280;4181;43.416;24.598;2023-04-01T04:51:01;98880.72;;;15.03;100.00
8286;BME280;4181;43.416;24.598;2023-04-01T04:53:27;98884.97;;;15.09;100.00
8286;BME280;4181;43.416;24.598;2023-04-01T04:55:53;98885.03;;;15.18;100.00
8286;BME280;4181;43.416;24.598;2023-04-01T04:58:19;98882.19;;;15.23;100.00
8286;BME280;4181;43.416;24.598;2023-04-01T05:00:45;98895.78;;;15.28;100.00
8286;BME280;4181;43.416;24.598;2023-04-01T05:03:11;98897.16;;;15.17;100.00
8286;BME280;4181;43.416;24.598;2023-04-01T05:05:37;98885.88;;;15.18;100.00
8286;BME280;4181;43.416;24.598;2023-04-01T05:08:03;98883.03;;;15.10;100.00
8286;BME280;4181;43.416;24.598;2023-04-01T05:10:28;98876.28;;;15.16;100.00
8286;BME280;4181;43.416;24.598;2023-04-01T05:12:54;98887.91;;;15.13;100.00
8286;BME280;4181;43.416;24.598;2023-04-01T05:15:20;98889.91;;;15.21;100.00
8286;BME280;4181;43.416;24.598;2023-04-01T05:17:45;98889.28;;;15.24;100.00
8286;BME280;4181;43.416;24.598;2023-04-01T05:20:14;98880.09;;;15.42;100.00
8286;BME280;4181;43.416;24.598;2023-04-01T05:22:42;98878.56;;;15.58;100.00
8286;BME280;4181;43.416;24.598;2023-04-01T05:25:07;98875.56;;;15.68;100.00
8286;BME280;4181;43.416;24.598;2023-04-01T05:27:33;98873.78;;;15.72;100.00
8286;BME280;4181;43.416;24.598;2023-04-01T05:29:58;98875.44;;;15.73;100.00
8286;BME280;4181;43.416;24.598;2023-04-01T05:32:24;98878.53;;;15.80;100.00
8286;BME280;4181;43.416;24.598;2023-04-01T05:34:51;98880.94;;;15.73;100.00
8286;BME280;4181;43.416;24.598;2023-04-01T05:37:17;98872.16;;;15.71;100.00
8286;BME280;4181;43.416;24.598;2023-04-01T05:39:43;98877.31;;;15.64;100.00
8286;BME280;4181;43.416;24.598;2023-04-01T05:42:08;98873.44;;;15.65;100.00
8286;BME280;4181;43.416;24.598;2023-04-01T05:44:35;98862.78;;;15.72;100.00
8286;BME280;4181;43.416;24.598;2023-04-01T05:47:01;98861.81;;;15.68;100.00
8286;BME280;4181;43.416;24.598;2023-04-01T05:49:26;98860.16;;;15.67;100.00
8286;BME280;4181;43.416;24.598;2023-04-01T05:51:52;98864.50;;;15.60;100.00
8286;BME280;4181;43.416;24.598;2023-04-01T05:54:18;98859.31;;;15.58;100.00
8286;BME280;4181;43.416;24.598;2023-04-01T05:56:43;98848.69;;;15.65;100.00
8286;BME280;4181;43.416;24.598;2023-04-01T05:59:10;98841.75;;;15.68;100.00
8286;BME280;4181;43.416;24.598;2023-04-01T06:01:36;98824.56;;;15.62;100.00
8286;BME280;4181;43.416;24.598;2023-04-01T06:04:01;98824.28;;;15.64;100.00
8286;BME280;4181;43.416;24.598;2023-04-01T06:06:29;98817.31;;;15.66;100.00
8286;BME280;4181;43.416;24.598;2023-04-01T06:08:56;98813.56;;;15.62;100.00
8286;BME280;4181;43.416;24.598;2023-04-01T06:19:45;98808.06;;;15.62;100.00
8286;BME280;4181;43.416;24.598;2023-04-01T06:22:47;98798.94;;;15.75;100.00
8286;BME280;4181;43.416;24.598;2023-04-01T06:25:29;98789.13;;;15.91;100.00
8286;BME280;4181;43.416;24.598;2023-04-01T06:30:40;98779.44;;;16.02;100.00
8286;BME280;4181;43.416;24.598;2023-04-01T06:36:21;98765.53;;;16.16;100.00
8286;BME280;4181;43.416;24.598;2023-04-01T06:39:05;98776.69;;;15.94;100.00
8286;BME280;4181;43.416;24.598;2023-04-01T06:57:45;98765.88;;;16.14;100.00
8286;BME280;4181;43.416;24.598;2023-04-01T07:00:34;98769.75;;;16.13;100.00
8286;BME280;4181;43.416;24.598;2023-04-01T07:05:59;98767.78;;;16.14;100.00
8286;BME280;4181;43.416;24.598;2023-04-01T07:08:28;98761.31;;;16.01;100.00
8286;BME280;4181;43.416;24.598;2023-04-01T07:10:59;98751.94;;;16.11;100.00
8286;BME280;4181;43.416;24.598;2023-04-01T07:13:34;98760.56;;;16.26;100.00
8286;BME280;4181;43.416;24.598;2023-04-01T07:16:11;98745.72;;;16.53;100.00
8286;BME280;4181;43.416;24.598;2023-04-01T07:18:50;98741.69;;;16.51;100.00
8286;BME280;4181;43.416;24.598;2023-04-01T07:21:31;98740.22;;;16.53;100.00
8286;BME280;4181;43.416;24.598;2023-04-01T07:24:26;98740.03;;;16.58;100.00
8286;BME280;4181;43.416;24.598;2023-04-01T07:26:56;98748.47;;;16.62;100.00
8286;BME280;4181;43.416;24.598;2023-04-01T07:29:22;98745.22;;;16.60;100.00
8286;BME280;4181;43.416;24.598;2023-04-01T07:34:34;98734.53;;;16.75;100.00
8286;BME280;4181;43.416;24.598;2023-04-01T07:45:20;98742.28;;;16.99;100.00
8286;BME280;4181;43.416;24.598;2023-04-01T07:48:15;98745.03;;;17.07;100.00
8286;BME280;4181;43.416;24.598;2023-04-01T07:59:17;98713.16;;;17.35;100.00
8286;BME280;4181;43.416;24.598;2023-04-01T08:12:15;98695.28;;;17.50;100.00
8286;BME280;4181;43.416;24.598;2023-04-01T08:23:22;98697.50;;;17.65;100.00
8286;BME280;4181;43.416;24.598;2023-04-01T08:26:01;98697.47;;;17.74;100.00
8286;BME280;4181;43.416;24.598;2023-04-01T08:28:54;98705.69;;;17.82;100.00
8286;BME280;4181;43.416;24.598;2023-04-01T08:31:36;98715.09;;;17.81;100.00
8286;BME280;4181;43.416;24.598;2023-04-01T08:34:04;98703.13;;;17.98;100.00
8286;BME280;4181;43.416;24.598;2023-04-01T08:36:38;98704.25;;;18.05;100.00
8286;BME280;4181;43.416;24.598;2023-04-01T08:39:19;98703.16;;;18.18;100.00
8286;BME280;4181;43.416;24.598;2023-04-01T08:51:12;98702.81;;;18.49;100.00
8286;BME280;4181;43.416;24.598;2023-04-01T09:10:57;98629.84;;;19.63;100.00
8286;BME280;4181;43.416;24.598;2023-04-01T09:19:21;98610.63;;;19.94;100.00
8286;BME280;4181;43.416;24.598;2023-04-01T09:22:10;98587.06;;;20.25;100.00
8286;BME280;4181;43.416;24.598;2023-04-01T09:25:15;98586.28;;;20.67;100.00
8286;BME280;4181;43.416;24.598;2023-04-01T09:36:35;98576.06;;;21.96;100.00
8286;BME280;4181;43.416;24.598;2023-04-01T09:44:48;98564.72;;;22.04;100.00
8286;BME280;4181;43.416;24.598;2023-04-01T10:18:32;98560.06;;;22.46;100.00
8286;BME280;4181;43.416;24.598;2023-04-01T10:21:23;98569.78;;;22.18;100.00
8286;BME280;4181;43.416;24.598;2023-04-01T10:45:38;98545.19;;;21.82;100.00
8286;BME280;4181;43.416;24.598;2023-04-01T10:51:43;98533.75;;;22.02;100.00
8286;BME280;4181;43.416;24.598;2023-04-01T11:26:32;98511.22;;;21.03;100.00
8286;BME280;4181;43.416;24.598;2023-04-01T11:39:52;98514.69;;;20.69;100.00
8286;BME280;4181;43.416;24.598;2023-04-01T11:48:19;98502.59;;;20.62;100.00
8286;BME280;4181;43.416;24.598;2023-04-01T12:02:24;98518.72;;;20.01;100.00
8286;BME280;4181;43.416;24.598;2023-04-01T12:04:58;98503.47;;;20.07;100.00
8286;BME280;4181;43.416;24.598;2023-04-01T12:10:33;98503.34;;;20.03;100.00
8286;BME280;4181;43.416;24.598;2023-04-01T12:19:09;98498.41;;;19.97;100.00
8286;BME280;4181;43.416;24.598;2023-04-01T12:24:33;98489.88;;;20.02;100.00
8286;BME280;4181;43.416;24.598;2023-04-01T12:27:23;98489.63;;;20.07;100.00
8286;BME280;4181;43.416;24.598;2023-04-01T12:30:21;98489.88;;;20.02;100.00
8286;BME280;4181;43.416;24.598;2023-04-01T12:35:44;98481.22;;;19.76;100.00
8286;BME280;4181;43.416;24.598;2023-04-01T13:00:18;98556.66;;;19.01;100.00
8286;BME280;4181;43.416;24.598;2023-04-01T13:05:33;98561.47;;;18.91;100.00
8286;BME280;4181;43.416;24.598;2023-04-01T13:16:23;98608.06;;;18.69;100.00
8286;BME280;4181;43.416;24.598;2023-04-01T13:43:30;98647.34;;;17.34;100.00
8286;BME280;4181;43.416;24.598;2023-04-01T13:46:25;98639.44;;;17.24;100.00
8286;BME280;4181;43.416;24.598;2023-04-01T13:49:23;98643.09;;;16.99;100.00
8286;BME280;4181;43.416;24.598;2023-04-01T13:55:15;98649.69;;;16.52;100.00
8286;BME280;4181;43.416;24.598;2023-04-01T14:01:04;98596.25;;;16.18;100.00
8286;BME280;4181;43.416;24.598;2023-04-01T14:14:36;98471.84;;;15.36;100.00
8286;BME280;4181;43.416;24.598;2023-04-01T14:22:52;98403.56;;;15.89;100.00
8286;BME280;4181;43.416;24.598;2023-04-01T14:28:44;98399.06;;;15.76;100.00
8286;BME280;4181;43.416;24.598;2023-04-01T14:34:05;98406.63;;;15.96;100.00
8286;BME280;4181;43.416;24.598;2023-04-01T14:47:46;98420.38;;;16.42;100.00
8286;BME280;4181;43.416;24.598;2023-04-01T14:50:18;98438.50;;;16.43;100.00
8286;BME280;4181;43.416;24.598;2023-04-01T14:53:13;98431.81;;;16.15;100.00
8286;BME280;4181;43.416;24.598;2023-04-01T15:03:38;98352.25;;;16.02;100.00
8286;BME280;4181;43.416;24.598;2023-04-01T15:06:15;98347.59;;;15.94;100.00
8286;BME280;4181;43.416;24.598;2023-04-01T15:14:49;98360.00;;;16.08;100.00
8286;BME280;4181;43.416;24.598;2023-04-01T15:22:52;98350.75;;;16.13;100.00
8286;BME280;4181;43.416;24.598;2023-04-01T15:25:45;98351.38;;;16.18;100.00
8286;BME280;4181;43.416;24.598;2023-04-01T15:31:14;98338.66;;;16.05;100.00
8286;BME280;4181;43.416;24.598;2023-04-01T15:36:45;98345.78;;;15.98;100.00
8286;BME280;4181;43.416;24.598;2023-04-01T15:39:18;98352.94;;;15.90;100.00
8286;BME280;4181;43.416;24.598;2023-04-01T15:49:56;98368.41;;;15.49;100.00
8286;BME280;4181;43.416;24.598;2023-04-01T15:52:23;98373.56;;;15.59;100.00
8286;BME280;4181;43.416;24.598;2023-04-01T15:58:06;98360.78;;;15.54;100.00
8286;BME280;4181;43.416;24.598;2023-04-01T16:03:39;98346.09;;;15.50;100.00
8286;BME280;4181;43.416;24.598;2023-04-01T16:09:01;98328.47;;;15.51;100.00
8286;BME280;4181;43.416;24.598;2023-04-01T16:14:28;98340.09;;;15.31;100.00
8286;BME280;4181;43.416;24.598;2023-04-01T16:17:22;98334.00;;;15.00;100.00
8286;BME280;4181;43.416;24.598;2023-04-01T16:20:02;98311.53;;;14.98;100.00
8286;BME280;4181;43.416;24.598;2023-04-01T16:22:35;98319.13;;;15.18;100.00
8286;BME280;4181;43.416;24.598;2023-04-01T16:31:08;98365.31;;;14.99;100.00
8286;BME280;4181;43.416;24.598;2023-04-01T16:41:48;98391.38;;;15.18;100.00
8286;BME280;4181;43.416;24.598;2023-04-01T16:44:22;98405.09;;;15.10;100.00
8286;BME280;4181;43.416;24.598;2023-04-01T16:46:59;98410.91;;;15.08;100.00
8286;BME280;4181;43.416;24.598;2023-04-01T16:50:48;98431.91;;;15.21;100.00
8286;BME280;4181;43.416;24.598;2023-04-01T16:53:14;98460.06;;;15.44;100.00
8286;BME280;4181;43.416;24.598;2023-04-01T16:56:03;98505.34;;;15.47;100.00
8286;BME280;4181;43.416;24.598;2023-04-01T17:01:24;98502.25;;;15.40;100.00
8286;BME280;4181;43.416;24.598;2023-04-01T17:03:58;98484.47;;;15.46;100.00
8286;BME280;4181;43.416;24.598;2023-04-01T17:06:31;98475.13;;;15.47;100.00
8286;BME280;4181;43.416;24.598;2023-04-01T17:11:58;98489.16;;;15.37;100.00
8286;BME280;4181;43.416;24.598;2023-04-01T17:20:20;98523.53;;;15.25;100.00
8286;BME280;4181;43.416;24.598;2023-04-01T17:23:21;98508.81;;;15.13;100.00
8286;BME280;4181;43.416;24.598;2023-04-01T17:25:51;98500.09;;;15.11;100.00
8286;BME280;4181;43.416;24.598;2023-04-01T17:31:05;98521.28;;;15.27;100.00
8286;BME280;4181;43.416;24.598;2023-04-01T17:45:19;98596.00;;;14.99;100.00
8286;BME280;4181;43.416;24.598;2023-04-01T17:48:00;98616.19;;;14.94;100.00
8286;BME280;4181;43.416;24.598;2023-04-01T17:56:10;98626.50;;;14.89;100.00
8286;BME280;4181;43.416;24.598;2023-04-01T17:58:44;98631.16;;;14.80;100.00
8286;BME280;4181;43.416;24.598;2023-04-01T18:06:57;98635.56;;;14.89;100.00
8286;BME280;4181;43.416;24.598;2023-04-01T18:09:55;98642.66;;;14.90;100.00
8286;BME280;4181;43.416;24.598;2023-04-01T18:13:22;98640.88;;;14.86;100.00
8286;BME280;4181;43.416;24.598;2023-04-01T18:15:40;98667.50;;;14.85;100.00
8286;BME280;4181;43.416;24.598;2023-04-01T18:20:54;98673.41;;;14.70;100.00
8286;BME280;4181;43.416;24.598;2023-04-01T18:23:41;98676.41;;;14.60;100.00
8286;BME280;4181;43.416;24.598;2023-04-01T18:26:12;98663.66;;;14.64;100.00
8286;BME280;4181;43.416;24.598;2023-04-01T18:28:45;98665.25;;;14.57;100.00
8286;BME280;4181;43.416;24.598;2023-04-01T18:31:42;98662.97;;;14.59;100.00
8286;BME280;4181;43.416;24.598;2023-04-01T18:39:51;98690.19;;;14.47;100.00
8286;BME280;4181;43.416;24.598;2023-04-01T18:42:38;98698.25;;;14.43;100.00
8286;BME280;4181;43.416;24.598;2023-04-01T18:45:17;98701.28;;;14.42;100.00
8286;BME280;4181;43.416;24.598;2023-04-01T18:47:54;98708.41;;;14.43;100.00
8286;BME280;4181;43.416;24.598;2023-04-01T18:53:53;98714.25;;;14.50;100.00
8286;BME280;4181;43.416;24.598;2023-04-01T18:56:51;98731.69;;;14.45;100.00
8286;BME280;4181;43.416;24.598;2023-04-01T18:59:28;98746.41;;;14.36;100.00
8286;BME280;4181;43.416;24.598;2023-04-01T19:05:53;98775.09;;;14.16;100.00
8286;BME280;4181;43.416;24.598;2023-04-01T19:07:56;98788.59;;;14.13;100.00
8286;BME280;4181;43.416;24.598;2023-04-01T19:16:18;98821.72;;;14.02;100.00
8286;BME280;4181;43.416;24.598;2023-04-01T19:19:01;98830.97;;;14.07;100.00
8286;BME280;4181;43.416;24.598;2023-04-01T19:21:36;98837.34;;;14.02;100.00
8286;BME280;4181;43.416;24.598;2023-04-01T19:26:53;98856.84;;;13.87;100.00
8286;BME280;4181;43.416;24.598;2023-04-01T19:40:58;98879.28;;;13.75;100.00
8286;BME280;4181;43.416;24.598;2023-04-01T19:43:58;98878.53;;;13.56;100.00
8286;BME280;4181;43.416;24.598;2023-04-01T19:46:46;98882.84;;;13.44;100.00
8286;BME280;4181;43.416;24.598;2023-04-01T19:50:10;98896.88;;;13.42;100.00
8286;BME280;4181;43.416;24.598;2023-04-01T20:00:20;98895.69;;;13.48;100.00
8286;BME280;4181;43.416;24.598;2023-04-01T20:05:52;98890.59;;;13.55;100.00
8286;BME280;4181;43.416;24.598;2023-04-01T20:11:21;98893.59;;;13.40;100.00
8286;BME280;4181;43.416;24.598;2023-04-01T20:13:49;98892.50;;;13.41;100.00
8286;BME280;4181;43.416;24.598;2023-04-01T20:16:20;98888.13;;;13.40;100.00
8286;BME280;4181;43.416;24.598;2023-04-01T20:18:59;98883.69;;;13.44;100.00
8286;BME280;4181;43.416;24.598;2023-04-01T20:21:42;98878.28;;;13.39;100.00
8286;BME280;4181;43.416;24.598;2023-04-01T20:26:43;98893.81;;;13.44;100.00
8286;BME280;4181;43.416;24.598;2023-04-01T20:29:41;98900.28;;;13.34;100.00
8286;BME280;4181;43.416;24.598;2023-04-01T20:37:32;98911.94;;;13.26;100.00
8286;BME280;4181;43.416;24.598;2023-04-01T20:40:39;98914.06;;;13.29;100.00
8286;BME280;4181;43.416;24.598;2023-04-01T20:46:18;98935.69;;;13.31;100.00
8286;BME280;4181;43.416;24.598;2023-04-01T20:51:28;98936.50;;;13.31;100.00
8286;BME280;4181;43.416;24.598;2023-04-01T20:54:14;98945.31;;;13.28;100.00
8286;BME280;4181;43.416;24.598;2023-04-01T20:57:00;98946.13;;;13.29;100.00
8286;BME280;4181;43.416;24.598;2023-04-01T20:59:48;98937.19;;;13.23;100.00
8286;BME280;4181;43.416;24.598;2023-04-01T21:05:19;98944.88;;;13.21;100.00
8286;BME280;4181;43.416;24.598;2023-04-01T21:10:46;98949.84;;;13.19;100.00
8286;BME280;4181;43.416;24.598;2023-04-01T21:40:51;98942.28;;;13.11;100.00
8286;BME280;4181;43.416;24.598;2023-04-01T21:52:21;98937.97;;;13.05;100.00
8286;BME280;4181;43.416;24.598;2023-04-01T21:55:08;98944.22;;;13.11;100.00
8286;BME280;4181;43.416;24.598;2023-04-01T22:00:42;98942.00;;;13.13;100.00
8286;BME280;4181;43.416;24.598;2023-04-01T22:04:08;98940.16;;;13.08;100.00
8286;BME280;4181;43.416;24.598;2023-04-01T22:06:47;98942.00;;;13.13;100.00
8286;BME280;4181;43.416;24.598;2023-04-01T22:09:59;98937.34;;;13.13;100.00
8286;BME280;4181;43.416;24.598;2023-04-01T22:13:20;98935.69;;;13.12;100.00
8286;BME280;4181;43.416;24.598;2023-04-01T22:18:21;98931.88;;;13.13;100.00
8286;BME280;4181;43.416;24.598;2023-04-01T22:21:04;98932.44;;;13.10;100.00
8286;BME280;4181;43.416;24.598;2023-04-01T22:31:46;98924.88;;;13.02;100.00
8286;BME280;4181;43.416;24.598;2023-04-01T22:34:17;98925.47;;;12.99;100.00
8286;BME280;4181;43.416;24.598;2023-04-01T22:36:56;98930.19;;;12.94;100.00
8286;BME280;4181;43.416;24.598;2023-04-01T22:45:10;98935.25;;;13.05;100.00
8286;BME280;4181;43.416;24.598;2023-04-01T22:51:22;98931.03;;;13.13;100.00
8286;BME280;4181;43.416;24.598;2023-04-01T22:56:43;98934.59;;;13.13;100.00
8286;BME280;4181;43.416;24.598;2023-04-01T22:59:29;98940.06;;;13.13;100.00
8286;BME280;4181;43.416;24.598;2023-04-01T23:02:08;98938.28;;;13.04;100.00
8286;BME280;4181;43.416;24.598;2023-04-01T23:04:39;98944.69;;;12.94;100.00
8286;BME280;4181;43.416;24.598;2023-04-01T23:10:05;98941.34;;;12.97;100.00
8286;BME280;4181;43.416;24.598;2023-04-01T23:12:38;98944.69;;;12.94;100.00
8286;BME280;4181;43.416;24.598;2023-04-01T23:15:12;98946.22;;;13.00;100.00
8286;BME280;4181;43.416;24.598;2023-04-01T23:17:43;98945.41;;;13.05;100.00
8286;BME280;4181;43.416;24.598;2023-04-01T23:22:49;98958.31;;;12.99;100.00
8286;BME280;4181;43.416;24.598;2023-04-01T23:28:55;98948.13;;;13.05;100.00
8286;BME280;4181;43.416;24.598;2023-04-01T23:33:58;98951.09;;;13.08;100.00
8286;BME280;4181;43.416;24.598;2023-04-01T23:36:25;98955.97;;;13.11;100.00